<?xml version="1.0" encoding="UTF-8"?>
<gpx version="1.0" creator="Gaggle https://github.com/geeksville/Gaggle" xmlns:xsi="http://www.w3.org/2001/XMLSchema-instance" xmlns="http://www.topografix.com/GPX/1/0" xsi:schemaLocation="http://www.topografix.com/GPX/1/0 http://www.topografix.com/GPX/1/0/gpx.xsd">
<trk>
	<name>Jorgev's flight</name>
	<desc>
	Pilot name:	Jorgev
	Pilot ID:	
	Glider type:	Rush 2
	</desc>
	<trkseg>
		<trkpt lat="42.874262" lon="-5.374013">
			<ele>1634.000000</ele>
		<time>2015-12-21T02:49:22Z</time>
		</trkpt>

		<trkpt lat="42.874196" lon="-5.374047">
			<ele>1620.000000</ele>
		<time>2015-12-21T02:49:28Z</time>
		</trkpt>

		<trkpt lat="42.874222" lon="-5.374068">
			<ele>1622.000000</ele>
		<time>2015-12-21T02:50:45Z</time>
		</trkpt>

		<trkpt lat="42.874249" lon="-5.374081">
			<ele>1622.000000</ele>
		<time>2015-12-21T02:50:55Z</time>
		</trkpt>

		<trkpt lat="42.874239" lon="-5.374119">
			<ele>1622.000000</ele>
		<time>2015-12-21T02:51:10Z</time>
		</trkpt>

		<trkpt lat="42.874262" lon="-5.374090">
			<ele>1625.000000</ele>
		<time>2015-12-21T02:51:19Z</time>
		</trkpt>

		<trkpt lat="42.874281" lon="-5.374059">
			<ele>1626.000000</ele>
		<time>2015-12-21T02:51:22Z</time>
		</trkpt>

		<trkpt lat="42.874266" lon="-5.374027">
			<ele>1628.000000</ele>
		<time>2015-12-21T02:51:27Z</time>
		</trkpt>

		<trkpt lat="42.874231" lon="-5.374036">
			<ele>1627.000000</ele>
		<time>2015-12-21T02:51:30Z</time>
		</trkpt>

		<trkpt lat="42.874204" lon="-5.374042">
			<ele>1626.000000</ele>
		<time>2015-12-21T02:51:35Z</time>
		</trkpt>

		<trkpt lat="42.874219" lon="-5.374076">
			<ele>1628.000000</ele>
		<time>2015-12-21T02:53:00Z</time>
		</trkpt>

		<trkpt lat="42.874194" lon="-5.374099">
			<ele>1628.000000</ele>
		<time>2015-12-21T02:53:08Z</time>
		</trkpt>

		<trkpt lat="42.874222" lon="-5.374089">
			<ele>1628.000000</ele>
		<time>2015-12-21T02:53:21Z</time>
		</trkpt>

		<trkpt lat="42.874225" lon="-5.374051">
			<ele>1625.000000</ele>
		<time>2015-12-21T02:54:00Z</time>
		</trkpt>

		<trkpt lat="42.874255" lon="-5.374038">
			<ele>1626.000000</ele>
		<time>2015-12-21T02:54:52Z</time>
		</trkpt>

		<trkpt lat="42.874231" lon="-5.374021">
			<ele>1622.000000</ele>
		<time>2015-12-21T02:55:40Z</time>
		</trkpt>

		<trkpt lat="42.874222" lon="-5.374063">
			<ele>1620.000000</ele>
		<time>2015-12-21T02:56:07Z</time>
		</trkpt>

		<trkpt lat="42.874197" lon="-5.374034">
			<ele>1623.000000</ele>
		<time>2015-12-21T02:56:12Z</time>
		</trkpt>

		<trkpt lat="42.874169" lon="-5.373996">
			<ele>1622.000000</ele>
		<time>2015-12-21T02:56:15Z</time>
		</trkpt>

		<trkpt lat="42.874146" lon="-5.373970">
			<ele>1622.000000</ele>
		<time>2015-12-21T02:56:26Z</time>
		</trkpt>

		<trkpt lat="42.874153" lon="-5.373925">
			<ele>1623.000000</ele>
		<time>2015-12-21T02:56:37Z</time>
		</trkpt>

		<trkpt lat="42.874145" lon="-5.373960">
			<ele>1623.000000</ele>
		<time>2015-12-21T02:56:56Z</time>
		</trkpt>

		<trkpt lat="42.874142" lon="-5.373997">
			<ele>1623.000000</ele>
		<time>2015-12-21T02:57:02Z</time>
		</trkpt>

		<trkpt lat="42.874159" lon="-5.374027">
			<ele>1622.000000</ele>
		<time>2015-12-21T02:57:18Z</time>
		</trkpt>

		<trkpt lat="42.874188" lon="-5.374046">
			<ele>1628.000000</ele>
		<time>2015-12-21T03:00:19Z</time>
		</trkpt>

		<trkpt lat="42.874217" lon="-5.374042">
			<ele>1628.000000</ele>
		<time>2015-12-21T03:00:22Z</time>
		</trkpt>

		<trkpt lat="42.874240" lon="-5.374061">
			<ele>1628.000000</ele>
		<time>2015-12-21T03:01:29Z</time>
		</trkpt>

		<trkpt lat="42.874263" lon="-5.374040">
			<ele>1630.000000</ele>
		<time>2015-12-21T03:02:10Z</time>
		</trkpt>

		<trkpt lat="42.874231" lon="-5.374037">
			<ele>1630.000000</ele>
		<time>2015-12-21T03:02:17Z</time>
		</trkpt>

		<trkpt lat="42.874211" lon="-5.374069">
			<ele>1627.000000</ele>
		<time>2015-12-21T03:04:49Z</time>
		</trkpt>

		<trkpt lat="42.874198" lon="-5.374107">
			<ele>1626.000000</ele>
		<time>2015-12-21T03:04:54Z</time>
		</trkpt>

		<trkpt lat="42.874212" lon="-5.374069">
			<ele>1627.000000</ele>
		<time>2015-12-21T03:04:58Z</time>
		</trkpt>

		<trkpt lat="42.874239" lon="-5.374054">
			<ele>1627.000000</ele>
		<time>2015-12-21T03:05:03Z</time>
		</trkpt>

		<trkpt lat="42.874260" lon="-5.374085">
			<ele>1625.000000</ele>
		<time>2015-12-21T03:07:08Z</time>
		</trkpt>

		<trkpt lat="42.874242" lon="-5.374057">
			<ele>1628.000000</ele>
		<time>2015-12-21T03:08:26Z</time>
		</trkpt>

		<trkpt lat="42.874219" lon="-5.374013">
			<ele>1618.000000</ele>
		<time>2015-12-21T03:10:25Z</time>
		</trkpt>

		<trkpt lat="42.874186" lon="-5.373980">
			<ele>1616.000000</ele>
		<time>2015-12-21T03:10:28Z</time>
		</trkpt>

		<trkpt lat="42.874094" lon="-5.373907">
			<ele>1610.000000</ele>
		<time>2015-12-21T03:10:31Z</time>
		</trkpt>

		<trkpt lat="42.873870" lon="-5.373699">
			<ele>1610.000000</ele>
		<time>2015-12-21T03:10:34Z</time>
		</trkpt>

		<trkpt lat="42.873750" lon="-5.373492">
			<ele>1609.000000</ele>
		<time>2015-12-21T03:10:37Z</time>
		</trkpt>

		<trkpt lat="42.873739" lon="-5.373158">
			<ele>1610.000000</ele>
		<time>2015-12-21T03:10:40Z</time>
		</trkpt>

		<trkpt lat="42.873805" lon="-5.372826">
			<ele>1607.000000</ele>
		<time>2015-12-21T03:10:43Z</time>
		</trkpt>

		<trkpt lat="42.873873" lon="-5.372440">
			<ele>1604.000000</ele>
		<time>2015-12-21T03:10:46Z</time>
		</trkpt>

		<trkpt lat="42.873966" lon="-5.372080">
			<ele>1603.000000</ele>
		<time>2015-12-21T03:10:49Z</time>
		</trkpt>

		<trkpt lat="42.874050" lon="-5.371769">
			<ele>1602.000000</ele>
		<time>2015-12-21T03:10:52Z</time>
		</trkpt>

		<trkpt lat="42.874085" lon="-5.371406">
			<ele>1603.000000</ele>
		<time>2015-12-21T03:10:55Z</time>
		</trkpt>

		<trkpt lat="42.873938" lon="-5.371209">
			<ele>1599.000000</ele>
		<time>2015-12-21T03:10:58Z</time>
		</trkpt>

		<trkpt lat="42.873784" lon="-5.371311">
			<ele>1598.000000</ele>
		<time>2015-12-21T03:11:01Z</time>
		</trkpt>

		<trkpt lat="42.873733" lon="-5.371574">
			<ele>1595.000000</ele>
		<time>2015-12-21T03:11:04Z</time>
		</trkpt>

		<trkpt lat="42.873741" lon="-5.371885">
			<ele>1593.000000</ele>
		<time>2015-12-21T03:11:07Z</time>
		</trkpt>

		<trkpt lat="42.873692" lon="-5.372137">
			<ele>1591.000000</ele>
		<time>2015-12-21T03:11:10Z</time>
		</trkpt>

		<trkpt lat="42.873576" lon="-5.372367">
			<ele>1587.000000</ele>
		<time>2015-12-21T03:11:13Z</time>
		</trkpt>

		<trkpt lat="42.873403" lon="-5.372556">
			<ele>1585.000000</ele>
		<time>2015-12-21T03:11:16Z</time>
		</trkpt>

		<trkpt lat="42.873207" lon="-5.372572">
			<ele>1586.000000</ele>
		<time>2015-12-21T03:11:19Z</time>
		</trkpt>

		<trkpt lat="42.873009" lon="-5.372572">
			<ele>1583.000000</ele>
		<time>2015-12-21T03:11:22Z</time>
		</trkpt>

		<trkpt lat="42.872826" lon="-5.372464">
			<ele>1583.000000</ele>
		<time>2015-12-21T03:11:25Z</time>
		</trkpt>

		<trkpt lat="42.872773" lon="-5.372236">
			<ele>1581.000000</ele>
		<time>2015-12-21T03:11:28Z</time>
		</trkpt>

		<trkpt lat="42.872890" lon="-5.371951">
			<ele>1580.000000</ele>
		<time>2015-12-21T03:11:31Z</time>
		</trkpt>

		<trkpt lat="42.873084" lon="-5.371738">
			<ele>1577.000000</ele>
		<time>2015-12-21T03:11:34Z</time>
		</trkpt>

		<trkpt lat="42.873280" lon="-5.371478">
			<ele>1576.000000</ele>
		<time>2015-12-21T03:11:37Z</time>
		</trkpt>

		<trkpt lat="42.873272" lon="-5.371112">
			<ele>1573.000000</ele>
		<time>2015-12-21T03:11:40Z</time>
		</trkpt>

		<trkpt lat="42.873138" lon="-5.370822">
			<ele>1574.000000</ele>
		<time>2015-12-21T03:11:43Z</time>
		</trkpt>

		<trkpt lat="42.872996" lon="-5.370713">
			<ele>1581.000000</ele>
		<time>2015-12-21T03:11:46Z</time>
		</trkpt>

		<trkpt lat="42.872964" lon="-5.370485">
			<ele>1583.000000</ele>
		<time>2015-12-21T03:11:49Z</time>
		</trkpt>

		<trkpt lat="42.872940" lon="-5.370332">
			<ele>1584.000000</ele>
		<time>2015-12-21T03:11:52Z</time>
		</trkpt>

		<trkpt lat="42.872982" lon="-5.370121">
			<ele>1582.000000</ele>
		<time>2015-12-21T03:11:55Z</time>
		</trkpt>

		<trkpt lat="42.873032" lon="-5.369870">
			<ele>1583.000000</ele>
		<time>2015-12-21T03:11:58Z</time>
		</trkpt>

		<trkpt lat="42.873039" lon="-5.369587">
			<ele>1583.000000</ele>
		<time>2015-12-21T03:12:01Z</time>
		</trkpt>

		<trkpt lat="42.872958" lon="-5.369356">
			<ele>1586.000000</ele>
		<time>2015-12-21T03:12:04Z</time>
		</trkpt>

		<trkpt lat="42.872872" lon="-5.369142">
			<ele>1584.000000</ele>
		<time>2015-12-21T03:12:07Z</time>
		</trkpt>

		<trkpt lat="42.872703" lon="-5.369031">
			<ele>1583.000000</ele>
		<time>2015-12-21T03:12:10Z</time>
		</trkpt>

		<trkpt lat="42.872524" lon="-5.369080">
			<ele>1578.000000</ele>
		<time>2015-12-21T03:12:13Z</time>
		</trkpt>

		<trkpt lat="42.872435" lon="-5.369389">
			<ele>1577.000000</ele>
		<time>2015-12-21T03:12:16Z</time>
		</trkpt>

		<trkpt lat="42.872469" lon="-5.369729">
			<ele>1574.000000</ele>
		<time>2015-12-21T03:12:19Z</time>
		</trkpt>

		<trkpt lat="42.872566" lon="-5.370079">
			<ele>1571.000000</ele>
		<time>2015-12-21T03:12:22Z</time>
		</trkpt>

		<trkpt lat="42.872701" lon="-5.370419">
			<ele>1568.000000</ele>
		<time>2015-12-21T03:12:25Z</time>
		</trkpt>

		<trkpt lat="42.872820" lon="-5.370779">
			<ele>1567.000000</ele>
		<time>2015-12-21T03:12:28Z</time>
		</trkpt>

		<trkpt lat="42.872947" lon="-5.371148">
			<ele>1566.000000</ele>
		<time>2015-12-21T03:12:31Z</time>
		</trkpt>

		<trkpt lat="42.873021" lon="-5.371528">
			<ele>1570.000000</ele>
		<time>2015-12-21T03:12:34Z</time>
		</trkpt>

		<trkpt lat="42.873094" lon="-5.371924">
			<ele>1566.000000</ele>
		<time>2015-12-21T03:12:37Z</time>
		</trkpt>

		<trkpt lat="42.873013" lon="-5.372197">
			<ele>1563.000000</ele>
		<time>2015-12-21T03:12:40Z</time>
		</trkpt>

		<trkpt lat="42.872849" lon="-5.372053">
			<ele>1564.000000</ele>
		<time>2015-12-21T03:12:43Z</time>
		</trkpt>

		<trkpt lat="42.872813" lon="-5.371770">
			<ele>1560.000000</ele>
		<time>2015-12-21T03:12:46Z</time>
		</trkpt>

		<trkpt lat="42.872869" lon="-5.371504">
			<ele>1555.000000</ele>
		<time>2015-12-21T03:12:49Z</time>
		</trkpt>

		<trkpt lat="42.872940" lon="-5.371237">
			<ele>1555.000000</ele>
		<time>2015-12-21T03:12:52Z</time>
		</trkpt>

		<trkpt lat="42.872957" lon="-5.370948">
			<ele>1558.000000</ele>
		<time>2015-12-21T03:12:55Z</time>
		</trkpt>

		<trkpt lat="42.872861" lon="-5.370691">
			<ele>1556.000000</ele>
		<time>2015-12-21T03:12:58Z</time>
		</trkpt>

		<trkpt lat="42.872692" lon="-5.370531">
			<ele>1553.000000</ele>
		<time>2015-12-21T03:13:01Z</time>
		</trkpt>

		<trkpt lat="42.872510" lon="-5.370517">
			<ele>1555.000000</ele>
		<time>2015-12-21T03:13:04Z</time>
		</trkpt>

		<trkpt lat="42.872334" lon="-5.370651">
			<ele>1553.000000</ele>
		<time>2015-12-21T03:13:07Z</time>
		</trkpt>

		<trkpt lat="42.872155" lon="-5.370824">
			<ele>1555.000000</ele>
		<time>2015-12-21T03:13:10Z</time>
		</trkpt>

		<trkpt lat="42.872000" lon="-5.370898">
			<ele>1553.000000</ele>
		<time>2015-12-21T03:13:13Z</time>
		</trkpt>

		<trkpt lat="42.871874" lon="-5.370722">
			<ele>1555.000000</ele>
		<time>2015-12-21T03:13:16Z</time>
		</trkpt>

		<trkpt lat="42.871938" lon="-5.370451">
			<ele>1552.000000</ele>
		<time>2015-12-21T03:13:19Z</time>
		</trkpt>

		<trkpt lat="42.872103" lon="-5.370281">
			<ele>1551.000000</ele>
		<time>2015-12-21T03:13:22Z</time>
		</trkpt>

		<trkpt lat="42.872500" lon="-5.370393">
			<ele>1550.000000</ele>
		<time>2015-12-21T03:13:25Z</time>
		</trkpt>

		<trkpt lat="42.872628" lon="-5.370785">
			<ele>1548.000000</ele>
		<time>2015-12-21T03:13:28Z</time>
		</trkpt>

		<trkpt lat="42.872569" lon="-5.371100">
			<ele>1544.000000</ele>
		<time>2015-12-21T03:13:31Z</time>
		</trkpt>

		<trkpt lat="42.872414" lon="-5.371270">
			<ele>1544.000000</ele>
		<time>2015-12-21T03:13:34Z</time>
		</trkpt>

		<trkpt lat="42.872229" lon="-5.371322">
			<ele>1544.000000</ele>
		<time>2015-12-21T03:13:37Z</time>
		</trkpt>

		<trkpt lat="42.872079" lon="-5.371381">
			<ele>1538.000000</ele>
		<time>2015-12-21T03:13:40Z</time>
		</trkpt>

		<trkpt lat="42.871940" lon="-5.371399">
			<ele>1534.000000</ele>
		<time>2015-12-21T03:13:43Z</time>
		</trkpt>

		<trkpt lat="42.871822" lon="-5.371272">
			<ele>1530.000000</ele>
		<time>2015-12-21T03:13:46Z</time>
		</trkpt>

		<trkpt lat="42.871855" lon="-5.370976">
			<ele>1527.000000</ele>
		<time>2015-12-21T03:13:49Z</time>
		</trkpt>

		<trkpt lat="42.872069" lon="-5.370797">
			<ele>1526.000000</ele>
		<time>2015-12-21T03:13:52Z</time>
		</trkpt>

		<trkpt lat="42.872282" lon="-5.370974">
			<ele>1523.000000</ele>
		<time>2015-12-21T03:13:55Z</time>
		</trkpt>

		<trkpt lat="42.872240" lon="-5.371455">
			<ele>1525.000000</ele>
		<time>2015-12-21T03:13:58Z</time>
		</trkpt>

		<trkpt lat="42.872221" lon="-5.371686">
			<ele>1521.000000</ele>
		<time>2015-12-21T03:14:01Z</time>
		</trkpt>

		<trkpt lat="42.872073" lon="-5.371904">
			<ele>1514.000000</ele>
		<time>2015-12-21T03:14:04Z</time>
		</trkpt>

		<trkpt lat="42.871928" lon="-5.371928">
			<ele>1512.000000</ele>
		<time>2015-12-21T03:14:07Z</time>
		</trkpt>

		<trkpt lat="42.871755" lon="-5.371749">
			<ele>1507.000000</ele>
		<time>2015-12-21T03:14:10Z</time>
		</trkpt>

		<trkpt lat="42.871597" lon="-5.371572">
			<ele>1503.000000</ele>
		<time>2015-12-21T03:14:13Z</time>
		</trkpt>

		<trkpt lat="42.871457" lon="-5.371348">
			<ele>1500.000000</ele>
		<time>2015-12-21T03:14:16Z</time>
		</trkpt>

		<trkpt lat="42.871270" lon="-5.371158">
			<ele>1497.000000</ele>
		<time>2015-12-21T03:14:19Z</time>
		</trkpt>

		<trkpt lat="42.871078" lon="-5.370983">
			<ele>1492.000000</ele>
		<time>2015-12-21T03:14:22Z</time>
		</trkpt>

		<trkpt lat="42.870868" lon="-5.370836">
			<ele>1492.000000</ele>
		<time>2015-12-21T03:14:25Z</time>
		</trkpt>

		<trkpt lat="42.870702" lon="-5.370668">
			<ele>1494.000000</ele>
		<time>2015-12-21T03:14:28Z</time>
		</trkpt>

		<trkpt lat="42.870604" lon="-5.370505">
			<ele>1490.000000</ele>
		<time>2015-12-21T03:14:31Z</time>
		</trkpt>

		<trkpt lat="42.870472" lon="-5.370301">
			<ele>1488.000000</ele>
		<time>2015-12-21T03:14:34Z</time>
		</trkpt>

		<trkpt lat="42.870258" lon="-5.370363">
			<ele>1484.000000</ele>
		<time>2015-12-21T03:14:37Z</time>
		</trkpt>

		<trkpt lat="42.870158" lon="-5.370689">
			<ele>1482.000000</ele>
		<time>2015-12-21T03:14:40Z</time>
		</trkpt>

		<trkpt lat="42.870205" lon="-5.371050">
			<ele>1479.000000</ele>
		<time>2015-12-21T03:14:43Z</time>
		</trkpt>

		<trkpt lat="42.870214" lon="-5.371492">
			<ele>1477.000000</ele>
		<time>2015-12-21T03:14:46Z</time>
		</trkpt>

		<trkpt lat="42.870071" lon="-5.371814">
			<ele>1473.000000</ele>
		<time>2015-12-21T03:14:49Z</time>
		</trkpt>

		<trkpt lat="42.869839" lon="-5.371965">
			<ele>1473.000000</ele>
		<time>2015-12-21T03:14:52Z</time>
		</trkpt>

		<trkpt lat="42.869654" lon="-5.371868">
			<ele>1473.000000</ele>
		<time>2015-12-21T03:14:55Z</time>
		</trkpt>

		<trkpt lat="42.869511" lon="-5.371705">
			<ele>1467.000000</ele>
		<time>2015-12-21T03:14:58Z</time>
		</trkpt>

		<trkpt lat="42.869405" lon="-5.371420">
			<ele>1464.000000</ele>
		<time>2015-12-21T03:15:01Z</time>
		</trkpt>

		<trkpt lat="42.869390" lon="-5.371136">
			<ele>1463.000000</ele>
		<time>2015-12-21T03:15:04Z</time>
		</trkpt>

		<trkpt lat="42.869331" lon="-5.370889">
			<ele>1462.000000</ele>
		<time>2015-12-21T03:15:07Z</time>
		</trkpt>

		<trkpt lat="42.869314" lon="-5.370651">
			<ele>1464.000000</ele>
		<time>2015-12-21T03:15:10Z</time>
		</trkpt>

		<trkpt lat="42.869312" lon="-5.370383">
			<ele>1463.000000</ele>
		<time>2015-12-21T03:15:13Z</time>
		</trkpt>

		<trkpt lat="42.869306" lon="-5.370161">
			<ele>1461.000000</ele>
		<time>2015-12-21T03:15:16Z</time>
		</trkpt>

		<trkpt lat="42.869287" lon="-5.369898">
			<ele>1458.000000</ele>
		<time>2015-12-21T03:15:19Z</time>
		</trkpt>

		<trkpt lat="42.869288" lon="-5.369615">
			<ele>1457.000000</ele>
		<time>2015-12-21T03:15:22Z</time>
		</trkpt>

		<trkpt lat="42.869332" lon="-5.369390">
			<ele>1454.000000</ele>
		<time>2015-12-21T03:15:25Z</time>
		</trkpt>

		<trkpt lat="42.869384" lon="-5.369147">
			<ele>1453.000000</ele>
		<time>2015-12-21T03:15:28Z</time>
		</trkpt>

		<trkpt lat="42.869405" lon="-5.368888">
			<ele>1451.000000</ele>
		<time>2015-12-21T03:15:31Z</time>
		</trkpt>

		<trkpt lat="42.869418" lon="-5.368623">
			<ele>1450.000000</ele>
		<time>2015-12-21T03:15:34Z</time>
		</trkpt>

		<trkpt lat="42.869445" lon="-5.368360">
			<ele>1450.000000</ele>
		<time>2015-12-21T03:15:37Z</time>
		</trkpt>

		<trkpt lat="42.869483" lon="-5.368088">
			<ele>1449.000000</ele>
		<time>2015-12-21T03:15:40Z</time>
		</trkpt>

		<trkpt lat="42.869530" lon="-5.367838">
			<ele>1447.000000</ele>
		<time>2015-12-21T03:15:43Z</time>
		</trkpt>

		<trkpt lat="42.869572" lon="-5.367555">
			<ele>1443.000000</ele>
		<time>2015-12-21T03:15:46Z</time>
		</trkpt>

		<trkpt lat="42.869525" lon="-5.367309">
			<ele>1439.000000</ele>
		<time>2015-12-21T03:15:49Z</time>
		</trkpt>

		<trkpt lat="42.869350" lon="-5.367162">
			<ele>1436.000000</ele>
		<time>2015-12-21T03:15:52Z</time>
		</trkpt>

		<trkpt lat="42.869162" lon="-5.367100">
			<ele>1433.000000</ele>
		<time>2015-12-21T03:15:55Z</time>
		</trkpt>

		<trkpt lat="42.868996" lon="-5.367276">
			<ele>1426.000000</ele>
		<time>2015-12-21T03:15:58Z</time>
		</trkpt>

		<trkpt lat="42.868820" lon="-5.367520">
			<ele>1422.000000</ele>
		<time>2015-12-21T03:16:01Z</time>
		</trkpt>

		<trkpt lat="42.868592" lon="-5.367653">
			<ele>1420.000000</ele>
		<time>2015-12-21T03:16:04Z</time>
		</trkpt>

		<trkpt lat="42.868349" lon="-5.367647">
			<ele>1417.000000</ele>
		<time>2015-12-21T03:16:07Z</time>
		</trkpt>

		<trkpt lat="42.868138" lon="-5.367505">
			<ele>1414.000000</ele>
		<time>2015-12-21T03:16:10Z</time>
		</trkpt>

		<trkpt lat="42.867989" lon="-5.367286">
			<ele>1407.000000</ele>
		<time>2015-12-21T03:16:13Z</time>
		</trkpt>

		<trkpt lat="42.867898" lon="-5.367036">
			<ele>1403.000000</ele>
		<time>2015-12-21T03:16:16Z</time>
		</trkpt>

		<trkpt lat="42.867799" lon="-5.366784">
			<ele>1399.000000</ele>
		<time>2015-12-21T03:16:19Z</time>
		</trkpt>

		<trkpt lat="42.867780" lon="-5.366498">
			<ele>1396.000000</ele>
		<time>2015-12-21T03:16:22Z</time>
		</trkpt>

		<trkpt lat="42.867759" lon="-5.366199">
			<ele>1391.000000</ele>
		<time>2015-12-21T03:16:25Z</time>
		</trkpt>

		<trkpt lat="42.867751" lon="-5.365919">
			<ele>1387.000000</ele>
		<time>2015-12-21T03:16:28Z</time>
		</trkpt>

		<trkpt lat="42.867653" lon="-5.365704">
			<ele>1384.000000</ele>
		<time>2015-12-21T03:16:31Z</time>
		</trkpt>

		<trkpt lat="42.867491" lon="-5.365544">
			<ele>1382.000000</ele>
		<time>2015-12-21T03:16:34Z</time>
		</trkpt>

		<trkpt lat="42.867299" lon="-5.365371">
			<ele>1378.000000</ele>
		<time>2015-12-21T03:16:37Z</time>
		</trkpt>

		<trkpt lat="42.867122" lon="-5.365261">
			<ele>1377.000000</ele>
		<time>2015-12-21T03:16:40Z</time>
		</trkpt>

		<trkpt lat="42.866935" lon="-5.365094">
			<ele>1374.000000</ele>
		<time>2015-12-21T03:16:43Z</time>
		</trkpt>

		<trkpt lat="42.866766" lon="-5.364934">
			<ele>1371.000000</ele>
		<time>2015-12-21T03:16:46Z</time>
		</trkpt>

		<trkpt lat="42.866582" lon="-5.364771">
			<ele>1367.000000</ele>
		<time>2015-12-21T03:16:49Z</time>
		</trkpt>

		<trkpt lat="42.866420" lon="-5.364614">
			<ele>1367.000000</ele>
		<time>2015-12-21T03:16:52Z</time>
		</trkpt>

		<trkpt lat="42.866328" lon="-5.364451">
			<ele>1360.000000</ele>
		<time>2015-12-21T03:16:55Z</time>
		</trkpt>

		<trkpt lat="42.866261" lon="-5.364210">
			<ele>1355.000000</ele>
		<time>2015-12-21T03:16:58Z</time>
		</trkpt>

		<trkpt lat="42.866226" lon="-5.363923">
			<ele>1352.000000</ele>
		<time>2015-12-21T03:17:01Z</time>
		</trkpt>

		<trkpt lat="42.866159" lon="-5.363660">
			<ele>1348.000000</ele>
		<time>2015-12-21T03:17:04Z</time>
		</trkpt>

		<trkpt lat="42.866091" lon="-5.363409">
			<ele>1348.000000</ele>
		<time>2015-12-21T03:17:07Z</time>
		</trkpt>

		<trkpt lat="42.866010" lon="-5.363172">
			<ele>1346.000000</ele>
		<time>2015-12-21T03:17:10Z</time>
		</trkpt>

		<trkpt lat="42.865958" lon="-5.362928">
			<ele>1342.000000</ele>
		<time>2015-12-21T03:17:13Z</time>
		</trkpt>

		<trkpt lat="42.865893" lon="-5.362652">
			<ele>1342.000000</ele>
		<time>2015-12-21T03:17:16Z</time>
		</trkpt>

		<trkpt lat="42.865846" lon="-5.362429">
			<ele>1341.000000</ele>
		<time>2015-12-21T03:17:19Z</time>
		</trkpt>

		<trkpt lat="42.865777" lon="-5.362177">
			<ele>1336.000000</ele>
		<time>2015-12-21T03:17:22Z</time>
		</trkpt>

		<trkpt lat="42.865725" lon="-5.361912">
			<ele>1333.000000</ele>
		<time>2015-12-21T03:17:25Z</time>
		</trkpt>

		<trkpt lat="42.865721" lon="-5.361634">
			<ele>1325.000000</ele>
		<time>2015-12-21T03:17:28Z</time>
		</trkpt>

		<trkpt lat="42.865663" lon="-5.361341">
			<ele>1322.000000</ele>
		<time>2015-12-21T03:17:31Z</time>
		</trkpt>

		<trkpt lat="42.865592" lon="-5.361053">
			<ele>1319.000000</ele>
		<time>2015-12-21T03:17:34Z</time>
		</trkpt>

		<trkpt lat="42.865515" lon="-5.360773">
			<ele>1319.000000</ele>
		<time>2015-12-21T03:17:37Z</time>
		</trkpt>

		<trkpt lat="42.865396" lon="-5.360550">
			<ele>1314.000000</ele>
		<time>2015-12-21T03:17:40Z</time>
		</trkpt>

		<trkpt lat="42.865236" lon="-5.360389">
			<ele>1310.000000</ele>
		<time>2015-12-21T03:17:43Z</time>
		</trkpt>

		<trkpt lat="42.865024" lon="-5.360287">
			<ele>1306.000000</ele>
		<time>2015-12-21T03:17:46Z</time>
		</trkpt>

		<trkpt lat="42.864826" lon="-5.360285">
			<ele>1302.000000</ele>
		<time>2015-12-21T03:17:49Z</time>
		</trkpt>

		<trkpt lat="42.864605" lon="-5.360260">
			<ele>1299.000000</ele>
		<time>2015-12-21T03:17:52Z</time>
		</trkpt>

		<trkpt lat="42.864378" lon="-5.360245">
			<ele>1296.000000</ele>
		<time>2015-12-21T03:17:55Z</time>
		</trkpt>

		<trkpt lat="42.864173" lon="-5.360242">
			<ele>1293.000000</ele>
		<time>2015-12-21T03:17:58Z</time>
		</trkpt>

		<trkpt lat="42.864008" lon="-5.360232">
			<ele>1290.000000</ele>
		<time>2015-12-21T03:18:01Z</time>
		</trkpt>

		<trkpt lat="42.863800" lon="-5.360236">
			<ele>1285.000000</ele>
		<time>2015-12-21T03:18:04Z</time>
		</trkpt>

		<trkpt lat="42.863614" lon="-5.360326">
			<ele>1281.000000</ele>
		<time>2015-12-21T03:18:07Z</time>
		</trkpt>

		<trkpt lat="42.863406" lon="-5.360450">
			<ele>1281.000000</ele>
		<time>2015-12-21T03:18:10Z</time>
		</trkpt>

		<trkpt lat="42.863213" lon="-5.360608">
			<ele>1278.000000</ele>
		<time>2015-12-21T03:18:13Z</time>
		</trkpt>

		<trkpt lat="42.863038" lon="-5.360716">
			<ele>1274.000000</ele>
		<time>2015-12-21T03:18:16Z</time>
		</trkpt>

		<trkpt lat="42.862834" lon="-5.360816">
			<ele>1269.000000</ele>
		<time>2015-12-21T03:18:19Z</time>
		</trkpt>

		<trkpt lat="42.862636" lon="-5.360917">
			<ele>1265.000000</ele>
		<time>2015-12-21T03:18:22Z</time>
		</trkpt>

		<trkpt lat="42.862456" lon="-5.361024">
			<ele>1261.000000</ele>
		<time>2015-12-21T03:18:25Z</time>
		</trkpt>

		<trkpt lat="42.862257" lon="-5.361128">
			<ele>1257.000000</ele>
		<time>2015-12-21T03:18:28Z</time>
		</trkpt>

		<trkpt lat="42.862090" lon="-5.361320">
			<ele>1253.000000</ele>
		<time>2015-12-21T03:18:31Z</time>
		</trkpt>

		<trkpt lat="42.861959" lon="-5.361584">
			<ele>1245.000000</ele>
		<time>2015-12-21T03:18:34Z</time>
		</trkpt>

		<trkpt lat="42.861867" lon="-5.361916">
			<ele>1242.000000</ele>
		<time>2015-12-21T03:18:37Z</time>
		</trkpt>

		<trkpt lat="42.861818" lon="-5.362258">
			<ele>1242.000000</ele>
		<time>2015-12-21T03:18:40Z</time>
		</trkpt>

		<trkpt lat="42.861706" lon="-5.362608">
			<ele>1244.000000</ele>
		<time>2015-12-21T03:18:43Z</time>
		</trkpt>

		<trkpt lat="42.861663" lon="-5.362933">
			<ele>1240.000000</ele>
		<time>2015-12-21T03:18:46Z</time>
		</trkpt>

		<trkpt lat="42.861508" lon="-5.363179">
			<ele>1234.000000</ele>
		<time>2015-12-21T03:18:49Z</time>
		</trkpt>

		<trkpt lat="42.861316" lon="-5.363407">
			<ele>1231.000000</ele>
		<time>2015-12-21T03:18:52Z</time>
		</trkpt>

		<trkpt lat="42.861125" lon="-5.363533">
			<ele>1228.000000</ele>
		<time>2015-12-21T03:18:55Z</time>
		</trkpt>

		<trkpt lat="42.860908" lon="-5.363569">
			<ele>1226.000000</ele>
		<time>2015-12-21T03:18:58Z</time>
		</trkpt>

		<trkpt lat="42.860731" lon="-5.363475">
			<ele>1225.000000</ele>
		<time>2015-12-21T03:19:01Z</time>
		</trkpt>

		<trkpt lat="42.860665" lon="-5.363214">
			<ele>1220.000000</ele>
		<time>2015-12-21T03:19:04Z</time>
		</trkpt>

		<trkpt lat="42.860656" lon="-5.362973">
			<ele>1220.000000</ele>
		<time>2015-12-21T03:19:07Z</time>
		</trkpt>

		<trkpt lat="42.860653" lon="-5.362724">
			<ele>1214.000000</ele>
		<time>2015-12-21T03:19:10Z</time>
		</trkpt>

		<trkpt lat="42.860563" lon="-5.362517">
			<ele>1211.000000</ele>
		<time>2015-12-21T03:19:13Z</time>
		</trkpt>

		<trkpt lat="42.860382" lon="-5.362407">
			<ele>1207.000000</ele>
		<time>2015-12-21T03:19:16Z</time>
		</trkpt>

		<trkpt lat="42.860185" lon="-5.362452">
			<ele>1204.000000</ele>
		<time>2015-12-21T03:19:19Z</time>
		</trkpt>

		<trkpt lat="42.860004" lon="-5.362431">
			<ele>1202.000000</ele>
		<time>2015-12-21T03:19:22Z</time>
		</trkpt>

		<trkpt lat="42.859908" lon="-5.362208">
			<ele>1201.000000</ele>
		<time>2015-12-21T03:19:25Z</time>
		</trkpt>

		<trkpt lat="42.859955" lon="-5.361919">
			<ele>1202.000000</ele>
		<time>2015-12-21T03:19:28Z</time>
		</trkpt>

		<trkpt lat="42.860056" lon="-5.361676">
			<ele>1196.000000</ele>
		<time>2015-12-21T03:19:31Z</time>
		</trkpt>

		<trkpt lat="42.860218" lon="-5.361426">
			<ele>1188.000000</ele>
		<time>2015-12-21T03:19:34Z</time>
		</trkpt>

		<trkpt lat="42.860347" lon="-5.361174">
			<ele>1184.000000</ele>
		<time>2015-12-21T03:19:37Z</time>
		</trkpt>

		<trkpt lat="42.860423" lon="-5.360865">
			<ele>1182.000000</ele>
		<time>2015-12-21T03:19:40Z</time>
		</trkpt>

		<trkpt lat="42.860476" lon="-5.360611">
			<ele>1180.000000</ele>
		<time>2015-12-21T03:19:43Z</time>
		</trkpt>

		<trkpt lat="42.860447" lon="-5.360349">
			<ele>1176.000000</ele>
		<time>2015-12-21T03:19:46Z</time>
		</trkpt>

		<trkpt lat="42.860409" lon="-5.360095">
			<ele>1174.000000</ele>
		<time>2015-12-21T03:19:49Z</time>
		</trkpt>

		<trkpt lat="42.860401" lon="-5.359841">
			<ele>1170.000000</ele>
		<time>2015-12-21T03:19:52Z</time>
		</trkpt>

		<trkpt lat="42.860354" lon="-5.359610">
			<ele>1169.000000</ele>
		<time>2015-12-21T03:19:55Z</time>
		</trkpt>

		<trkpt lat="42.860358" lon="-5.359367">
			<ele>1166.000000</ele>
		<time>2015-12-21T03:19:58Z</time>
		</trkpt>

		<trkpt lat="42.860360" lon="-5.359054">
			<ele>1168.000000</ele>
		<time>2015-12-21T03:20:01Z</time>
		</trkpt>

		<trkpt lat="42.860426" lon="-5.358799">
			<ele>1162.000000</ele>
		<time>2015-12-21T03:20:04Z</time>
		</trkpt>

		<trkpt lat="42.860432" lon="-5.358481">
			<ele>1158.000000</ele>
		<time>2015-12-21T03:20:07Z</time>
		</trkpt>

		<trkpt lat="42.860365" lon="-5.358272">
			<ele>1154.000000</ele>
		<time>2015-12-21T03:20:10Z</time>
		</trkpt>

		<trkpt lat="42.860214" lon="-5.358183">
			<ele>1152.000000</ele>
		<time>2015-12-21T03:20:13Z</time>
		</trkpt>

		<trkpt lat="42.860045" lon="-5.358272">
			<ele>1151.000000</ele>
		<time>2015-12-21T03:20:16Z</time>
		</trkpt>

		<trkpt lat="42.859872" lon="-5.358474">
			<ele>1146.000000</ele>
		<time>2015-12-21T03:20:19Z</time>
		</trkpt>

		<trkpt lat="42.859731" lon="-5.358692">
			<ele>1143.000000</ele>
		<time>2015-12-21T03:20:22Z</time>
		</trkpt>

		<trkpt lat="42.859558" lon="-5.358876">
			<ele>1141.000000</ele>
		<time>2015-12-21T03:20:25Z</time>
		</trkpt>

		<trkpt lat="42.859396" lon="-5.358979">
			<ele>1136.000000</ele>
		<time>2015-12-21T03:20:28Z</time>
		</trkpt>

		<trkpt lat="42.859209" lon="-5.359029">
			<ele>1131.000000</ele>
		<time>2015-12-21T03:20:31Z</time>
		</trkpt>

		<trkpt lat="42.859049" lon="-5.359005">
			<ele>1129.000000</ele>
		<time>2015-12-21T03:20:34Z</time>
		</trkpt>

		<trkpt lat="42.858867" lon="-5.359041">
			<ele>1128.000000</ele>
		<time>2015-12-21T03:20:37Z</time>
		</trkpt>

		<trkpt lat="42.858696" lon="-5.358901">
			<ele>1121.000000</ele>
		<time>2015-12-21T03:20:40Z</time>
		</trkpt>

		<trkpt lat="42.858613" lon="-5.358633">
			<ele>1118.000000</ele>
		<time>2015-12-21T03:20:43Z</time>
		</trkpt>

		<trkpt lat="42.858769" lon="-5.358365">
			<ele>1111.000000</ele>
		<time>2015-12-21T03:20:46Z</time>
		</trkpt>

		<trkpt lat="42.858881" lon="-5.358099">
			<ele>1110.000000</ele>
		<time>2015-12-21T03:20:49Z</time>
		</trkpt>

		<trkpt lat="42.858869" lon="-5.357860">
			<ele>1107.000000</ele>
		<time>2015-12-21T03:20:52Z</time>
		</trkpt>

		<trkpt lat="42.858703" lon="-5.357787">
			<ele>1106.000000</ele>
		<time>2015-12-21T03:20:55Z</time>
		</trkpt>

		<trkpt lat="42.858549" lon="-5.357666">
			<ele>1108.000000</ele>
		<time>2015-12-21T03:20:58Z</time>
		</trkpt>

		<trkpt lat="42.858379" lon="-5.357648">
			<ele>1107.000000</ele>
		<time>2015-12-21T03:21:01Z</time>
		</trkpt>

		<trkpt lat="42.858286" lon="-5.357621">
			<ele>1106.000000</ele>
		<time>2015-12-21T03:21:05Z</time>
		</trkpt>

		<trkpt lat="42.858212" lon="-5.357589">
			<ele>1104.000000</ele>
		<time>2015-12-21T03:21:09Z</time>
		</trkpt>

		<trkpt lat="42.858182" lon="-5.357603">
			<ele>1103.000000</ele>
		<time>2015-12-21T03:21:12Z</time>
		</trkpt>

		<trkpt lat="42.858167" lon="-5.357639">
			<ele>1096.000000</ele>
		<time>2015-12-21T03:21:57Z</time>
		</trkpt>

		<trkpt lat="42.858153" lon="-5.357671">
			<ele>1095.000000</ele>
		<time>2015-12-21T03:22:14Z</time>
		</trkpt>

		<trkpt lat="42.858133" lon="-5.357698">
			<ele>1093.000000</ele>
		<time>2015-12-21T03:22:25Z</time>
		</trkpt>

		<trkpt lat="42.858144" lon="-5.357653">
			<ele>1093.000000</ele>
		<time>2015-12-21T03:23:00Z</time>
		</trkpt>

		<trkpt lat="42.858147" lon="-5.357610">
			<ele>1093.000000</ele>
		<time>2015-12-21T03:23:03Z</time>
		</trkpt>

	</trkseg>
</trk>
</gpx>

